createdAt,value
2022-09-23T00:00:02.221Z,6.80
2022-09-23T00:05:17.036Z,6.70
2022-09-23T00:10:28.826Z,6.70
2022-09-23T00:15:40.870Z,6.50
2022-09-23T00:20:51.660Z,6.50
2022-09-23T00:26:04.249Z,6.50
2022-09-23T00:31:21.805Z,6.50
2022-09-23T00:36:34.409Z,6.40
2022-09-23T00:41:46.628Z,6.50
2022-09-23T00:46:55.295Z,6.40
2022-09-23T00:52:06.454Z,6.50
2022-09-23T00:57:17.820Z,6.60
2022-09-23T01:02:25.628Z,6.80
2022-09-23T01:07:35.240Z,6.70
2022-09-23T01:13:10.414Z,6.40
2022-09-23T01:18:52.257Z,6.40
2022-09-23T01:24:18.561Z,6.30
2022-09-23T01:29:58.301Z,6.20
2022-09-23T01:35:27.422Z,6.40
2022-09-23T01:41:01.239Z,6.40
2022-09-23T01:46:12.439Z,6.40
2022-09-23T01:51:35.225Z,6.40
2022-09-23T01:56:50.423Z,6.20
2022-09-23T02:02:07.300Z,6.10
2022-09-23T02:07:33.496Z,6.30
2022-09-23T02:12:45.760Z,6.20
2022-09-23T02:18:12.351Z,6.10
2022-09-23T02:23:35.561Z,6.20
2022-09-23T02:28:52.967Z,5.90
2022-09-23T02:34:10.050Z,5.90
2022-09-23T02:39:20.007Z,5.90
2022-09-23T02:44:28.853Z,5.70
2022-09-23T02:49:38.077Z,5.80
2022-09-23T02:54:46.660Z,5.90
2022-09-23T02:59:53.416Z,6.10
2022-09-23T03:05:35.109Z,6.40
2022-09-23T03:11:07.541Z,6.40
2022-09-23T03:16:34.358Z,5.80
2022-09-23T03:22:01.318Z,5.90
2022-09-23T03:27:18.083Z,5.80
2022-09-23T03:32:28.355Z,5.80
2022-09-23T03:37:53.026Z,5.70
2022-09-23T03:43:04.332Z,5.80
2022-09-23T03:48:14.753Z,5.90
2022-09-23T03:53:22.802Z,5.80
2022-09-23T03:58:29.549Z,5.80
2022-09-23T04:03:38.180Z,5.80
2022-09-23T04:08:45.499Z,5.60
2022-09-23T04:13:53.658Z,5.60
2022-09-23T04:19:00.812Z,5.60
2022-09-23T04:24:13.485Z,5.70
2022-09-23T04:29:21.390Z,5.60
2022-09-23T04:34:28.862Z,5.60
2022-09-23T04:39:35.552Z,5.70
2022-09-23T04:44:43.525Z,5.90
2022-09-23T04:49:50.332Z,6.00
2022-09-23T04:54:57.082Z,5.50
2022-09-23T05:00:05.323Z,5.40
2022-09-23T05:05:12.213Z,5.70
2022-09-23T05:10:19.885Z,5.70
2022-09-23T05:15:27.128Z,5.60
2022-09-23T05:20:34.487Z,5.70
2022-09-23T05:25:42.754Z,5.60
2022-09-23T05:30:49.344Z,5.60
2022-09-23T05:35:56.084Z,5.60
2022-09-23T05:41:09.345Z,5.60
2022-09-23T05:46:23.611Z,5.60
2022-09-23T05:51:32.002Z,5.60
2022-09-23T05:56:38.900Z,5.70
2022-09-23T06:01:47.036Z,5.80
2022-09-23T06:06:53.579Z,5.90
2022-09-23T06:12:00.282Z,6.00
2022-09-23T06:17:06.972Z,6.10
2022-09-23T06:22:15.205Z,6.10
2022-09-23T06:27:21.882Z,6.00
2022-09-23T06:32:28.576Z,6.10
2022-09-23T06:37:35.372Z,6.20
2022-09-23T06:42:47.983Z,6.30
2022-09-23T06:48:00.011Z,6.50
2022-09-23T06:53:06.840Z,6.60
2022-09-23T06:58:14.241Z,6.70
2022-09-23T07:03:22.128Z,6.80
2022-09-23T07:08:31.413Z,6.90
2022-09-23T07:13:38.087Z,6.90
2022-09-23T07:18:45.987Z,7.10
2022-09-23T07:23:54.043Z,7.30
2022-09-23T07:29:02.919Z,7.30
2022-09-23T07:34:12.255Z,7.50
2022-09-23T07:39:19.328Z,7.50
2022-09-23T07:44:26.061Z,7.70
2022-09-23T07:49:32.739Z,7.70
2022-09-23T07:54:39.420Z,7.90
2022-09-23T07:59:46.764Z,8.00
2022-09-23T08:04:53.756Z,8.20
2022-09-23T08:10:00.440Z,8.30
2022-09-23T08:15:09.086Z,8.50
2022-09-23T08:20:20.179Z,8.60
2022-09-23T08:25:27.402Z,9.10
2022-09-23T08:30:34.080Z,9.40
2022-09-23T08:35:42.894Z,9.90
2022-09-23T08:40:51.438Z,9.90
2022-09-23T08:46:03.859Z,10.60
2022-09-23T08:51:17.133Z,11.30
2022-09-23T08:56:26.014Z,11.70
2022-09-23T09:01:55.358Z,12.50
2022-09-23T09:07:37.939Z,13.20
2022-09-23T09:12:48.869Z,13.20
2022-09-23T09:18:18.636Z,13.40
2022-09-23T09:23:41.851Z,13.90
2022-09-23T09:28:53.047Z,13.70
2022-09-23T09:34:11.867Z,13.60
2022-09-23T09:39:24.104Z,13.50
2022-09-23T09:44:37.102Z,14.20
2022-09-23T09:49:54.445Z,13.70
2022-09-23T09:55:17.623Z,13.90
2022-09-23T10:00:32.024Z,14.20
2022-09-23T10:05:53.280Z,14.50
2022-09-23T10:11:19.376Z,14.70
2022-09-23T10:16:26.842Z,14.80
2022-09-23T10:21:40.131Z,14.80
2022-09-23T10:26:55.685Z,15.30
2022-09-23T10:32:36.955Z,15.10
2022-09-23T10:37:56.698Z,14.90
2022-09-23T10:43:28.469Z,15.30
2022-09-23T10:48:58.177Z,15.70
2022-09-23T10:54:21.944Z,15.60
2022-09-23T11:00:03.760Z,15.20
2022-09-23T11:05:29.767Z,15.10
2022-09-23T11:11:16.609Z,15.60
2022-09-23T11:16:48.920Z,15.00
2022-09-23T11:22:33.574Z,15.50
2022-09-23T11:28:23.795Z,15.80
2022-09-23T11:33:41.301Z,15.10
2022-09-23T11:38:51.252Z,15.10
2022-09-23T11:44:14.450Z,15.20
2022-09-23T11:49:48.671Z,15.60
2022-09-23T11:55:23.090Z,15.10
2022-09-23T12:00:33.019Z,15.40
2022-09-23T12:05:59.998Z,16.00
2022-09-23T12:11:32.389Z,15.70
2022-09-23T12:17:11.655Z,15.70
2022-09-23T12:22:59.466Z,15.70
2022-09-23T12:28:10.641Z,15.80
2022-09-23T12:33:33.186Z,16.00
2022-09-23T12:38:58.752Z,16.10
2022-09-23T12:44:19.226Z,15.60
2022-09-23T12:49:33.062Z,15.60
2022-09-23T12:54:39.666Z,16.00
2022-09-23T13:00:00.657Z,15.70
2022-09-23T13:05:44.952Z,15.80
2022-09-23T13:10:58.971Z,15.40
2022-09-23T13:16:25.163Z,15.70
2022-09-23T13:21:52.077Z,16.00
2022-09-23T13:27:27.464Z,15.90
2022-09-23T13:32:50.780Z,15.20
2022-09-23T13:37:58.726Z,15.50
2022-09-23T13:43:10.082Z,15.60
2022-09-23T13:48:18.178Z,15.60
2022-09-23T13:53:33.432Z,15.40
2022-09-23T13:58:40.119Z,15.30
2022-09-23T14:03:47.051Z,15.60
2022-09-23T14:08:53.941Z,15.50
2022-09-23T14:14:04.896Z,15.50
2022-09-23T14:19:16.541Z,15.70
2022-09-23T14:24:37.718Z,15.30
2022-09-23T14:29:47.993Z,15.20
2022-09-23T14:35:09.871Z,15.40
2022-09-23T14:40:25.505Z,15.40
2022-09-23T14:45:43.404Z,15.10
2022-09-23T14:51:12.031Z,15.00
2022-09-23T14:56:23.211Z,14.90
2022-09-23T15:01:40.394Z,15.10
2022-09-23T15:06:56.718Z,14.80
2022-09-23T15:12:10.874Z,14.80
2022-09-23T15:17:30.739Z,14.60
2022-09-23T15:22:51.452Z,14.30
2022-09-23T15:28:11.331Z,14.30
2022-09-23T15:33:18.092Z,14.00
2022-09-23T15:38:27.652Z,14.00
2022-09-23T15:43:34.548Z,13.80
2022-09-23T15:48:45.691Z,13.70
2022-09-23T15:53:52.801Z,13.60
2022-09-23T15:59:01.075Z,13.50
2022-09-23T16:04:08.671Z,13.40
2022-09-23T16:09:18.547Z,13.40
2022-09-23T16:14:26.143Z,13.00
2022-09-23T16:19:34.996Z,13.00
2022-09-23T16:24:43.351Z,12.90
2022-09-23T16:29:52.366Z,12.70
2022-09-23T16:35:01.559Z,12.70
2022-09-23T16:40:12.278Z,12.40
2022-09-23T16:45:24.700Z,12.10
2022-09-23T16:50:32.860Z,12.10
2022-09-23T16:55:40.038Z,11.80
2022-09-23T17:01:07.351Z,11.60
2022-09-23T17:06:20.573Z,11.50
2022-09-23T17:11:33.464Z,11.30
2022-09-23T17:16:42.362Z,11.20
2022-09-23T17:21:51.372Z,11.10
2022-09-23T17:27:00.723Z,11.00
2022-09-23T17:32:09.824Z,11.00
2022-09-23T17:37:16.498Z,11.10
2022-09-23T17:42:23.893Z,10.90
2022-09-23T17:47:36.476Z,10.90
2022-09-23T17:52:46.694Z,10.80
2022-09-23T17:57:54.643Z,10.60
2022-09-23T18:03:03.312Z,10.70
2022-09-23T18:08:11.979Z,10.40
2022-09-23T18:13:23.596Z,10.40
2022-09-23T18:18:32.429Z,10.30
2022-09-23T18:23:43.999Z,10.50
2022-09-23T18:28:58.386Z,10.30
2022-09-23T18:34:10.992Z,10.40
2022-09-23T18:39:22.972Z,10.50
2022-09-23T18:44:34.068Z,10.10
2022-09-23T18:50:02.278Z,10.10
2022-09-23T18:55:12.901Z,10.20
2022-09-23T19:00:21.209Z,10.10
2022-09-23T19:05:30.269Z,10.10
2022-09-23T19:15:46.326Z,10.10
2022-09-23T19:20:58.573Z,9.90
2022-09-23T19:26:12.813Z,10.00
2022-09-23T19:31:23.626Z,9.90
2022-09-23T19:36:39.336Z,9.70
2022-09-23T19:41:48.973Z,9.70
2022-09-23T19:46:57.806Z,9.70
2022-09-23T19:52:06.368Z,9.60
2022-09-23T19:57:13.016Z,9.70
2022-09-23T20:02:22.781Z,9.60
2022-09-23T20:07:31.212Z,9.60
2022-09-23T20:12:37.877Z,9.60
2022-09-23T20:17:45.230Z,9.70
2022-09-23T20:22:53.449Z,9.60
2022-09-23T20:28:00.160Z,9.70
2022-09-23T20:33:06.923Z,9.70
2022-09-23T20:38:15.431Z,9.70
2022-09-23T20:43:22.926Z,9.70
2022-09-23T20:48:33.135Z,9.80
2022-09-23T20:53:39.866Z,9.70
2022-09-23T20:58:49.067Z,9.80
2022-09-23T21:03:56.651Z,9.80
2022-09-23T21:09:03.496Z,9.50
2022-09-23T21:14:10.758Z,9.50
2022-09-23T21:19:20.062Z,9.50
2022-09-23T21:29:39.707Z,9.20
2022-09-23T21:34:46.686Z,9.20
2022-09-23T21:40:12.162Z,9.10
2022-09-23T21:45:18.818Z,9.20
2022-09-23T21:50:27.536Z,9.10
2022-09-23T21:55:34.406Z,9.10
2022-09-23T22:00:44.464Z,9.00
2022-09-23T22:05:54.541Z,8.90
2022-09-23T22:11:03.688Z,8.90
2022-09-23T22:16:10.987Z,8.90
2022-09-23T22:21:19.721Z,9.00
2022-09-23T22:26:31.222Z,9.00
2022-09-23T22:31:56.102Z,9.00
2022-09-23T22:37:06.253Z,9.00
2022-09-23T22:42:15.170Z,8.90
2022-09-23T22:47:24.355Z,9.00
2022-09-23T22:52:31.631Z,8.80
2022-09-23T22:57:39.335Z,8.80
2022-09-23T23:02:46.461Z,8.80
2022-09-23T23:07:53.700Z,8.70
2022-09-23T23:13:01.150Z,8.70
2022-09-23T23:18:09.674Z,8.60
2022-09-23T23:23:16.808Z,8.60
2022-09-23T23:28:24.402Z,8.70
2022-09-23T23:33:32.315Z,8.50
2022-09-23T23:38:42.142Z,8.60
2022-09-23T23:43:51.431Z,8.60
2022-09-23T23:49:01.172Z,8.60
2022-09-23T23:54:08.094Z,8.70
2022-09-23T23:59:18.441Z,8.70
